sensor_id;sensor_type;location;lat;lon;timestamp;pressure;altitude;pressure_sealevel;temperature;humidity
49825;BME280;35714;55.708;37.478;2024-01-06T14:55:51;98978.03;;;-8.35;46.69
49825;BME280;35714;55.708;37.478;2024-01-06T14:58:17;98976.09;;;-8.32;46.58
49825;BME280;35714;55.708;37.478;2024-01-06T15:00:42;98976.69;;;-8.29;46.39
49825;BME280;35714;55.708;37.478;2024-01-06T15:03:08;98977.25;;;-8.25;46.57
49825;BME280;35714;55.708;37.478;2024-01-06T15:05:34;98977.00;;;-8.22;46.34
49825;BME280;35714;55.708;37.478;2024-01-06T15:07:59;98963.41;;;-8.27;46.69
49825;BME280;35714;55.708;37.478;2024-01-06T15:10:25;98965.41;;;-8.20;46.67
49825;BME280;35714;55.708;37.478;2024-01-06T15:12:51;98976.75;;;-8.19;46.79
49825;BME280;35714;55.708;37.478;2024-01-06T15:15:17;98967.47;;;-8.23;46.37
49825;BME280;35714;55.708;37.478;2024-01-06T15:17:42;98971.06;;;-8.24;46.48
49825;BME280;35714;55.708;37.478;2024-01-06T15:20:08;98989.47;;;-8.24;46.61
49825;BME280;35714;55.708;37.478;2024-01-06T15:22:35;98980.50;;;-8.22;46.66
49825;BME280;35714;55.708;37.478;2024-01-06T15:25:01;98983.69;;;-8.18;47.16
49825;BME280;35714;55.708;37.478;2024-01-06T15:27:31;98985.38;;;-8.17;47.01
49825;BME280;35714;55.708;37.478;2024-01-06T15:29:58;98989.22;;;-8.21;46.62
49825;BME280;35714;55.708;37.478;2024-01-06T15:32:30;98986.81;;;-8.24;47.07
49825;BME280;35714;55.708;37.478;2024-01-06T15:34:55;98984.19;;;-8.24;47.26
49825;BME280;35714;55.708;37.478;2024-01-06T15:37:21;98984.91;;;-8.22;47.22
49825;BME280;35714;55.708;37.478;2024-01-06T15:39:46;98993.13;;;-8.16;47.10
49825;BME280;35714;55.708;37.478;2024-01-06T15:42:13;99002.56;;;-8.13;47.36
49825;BME280;35714;55.708;37.478;2024-01-06T15:44:39;98991.59;;;-8.18;46.91
49825;BME280;35714;55.708;37.478;2024-01-06T15:47:04;98992.78;;;-8.22;46.99
49825;BME280;35714;55.708;37.478;2024-01-06T15:49:30;98995.47;;;-8.34;46.81
49825;BME280;35714;55.708;37.478;2024-01-06T15:51:56;99004.09;;;-8.31;47.33
49825;BME280;35714;55.708;37.478;2024-01-06T15:54:22;99004.09;;;-8.31;46.94
49825;BME280;35714;55.708;37.478;2024-01-06T15:56:48;99008.63;;;-8.34;47.31
49825;BME280;35714;55.708;37.478;2024-01-06T15:59:14;98992.09;;;-8.45;47.35
49825;BME280;35714;55.708;37.478;2024-01-06T16:01:39;99006.47;;;-8.40;47.39
49825;BME280;35714;55.708;37.478;2024-01-06T16:04:05;99011.31;;;-8.45;47.28
49825;BME280;35714;55.708;37.478;2024-01-06T16:06:31;99016.56;;;-8.45;47.28
49825;BME280;35714;55.708;37.478;2024-01-06T16:08:56;99013.72;;;-8.53;47.04
49825;BME280;35714;55.708;37.478;2024-01-06T16:11:22;99013.75;;;-8.64;47.35
49825;BME280;35714;55.708;37.478;2024-01-06T16:13:48;99026.19;;;-8.66;47.35
49825;BME280;35714;55.708;37.478;2024-01-06T16:16:13;99018.53;;;-8.69;47.40
49825;BME280;35714;55.708;37.478;2024-01-06T16:18:40;99037.53;;;-8.66;47.31
49825;BME280;35714;55.708;37.478;2024-01-06T16:21:07;99041.00;;;-8.65;47.44
49825;BME280;35714;55.708;37.478;2024-01-06T16:23:32;99030.25;;;-8.74;47.18
49825;BME280;35714;55.708;37.478;2024-01-06T16:25:58;99034.06;;;-8.78;46.91
49825;BME280;35714;55.708;37.478;2024-01-06T16:28:25;99042.69;;;-8.87;47.31
49825;BME280;35714;55.708;37.478;2024-01-06T16:30:51;99039.94;;;-8.97;47.42
49825;BME280;35714;55.708;37.478;2024-01-06T16:33:16;99045.44;;;-9.00;47.25
49825;BME280;35714;55.708;37.478;2024-01-06T16:35:42;99049.88;;;-9.00;47.82
49825;BME280;35714;55.708;37.478;2024-01-06T16:38:11;99058.44;;;-8.98;47.90
49825;BME280;35714;55.708;37.478;2024-01-06T16:40:37;99050.56;;;-8.98;47.75
49825;BME280;35714;55.708;37.478;2024-01-06T16:43:03;99048.78;;;-8.98;47.55
49825;BME280;35714;55.708;37.478;2024-01-06T16:45:29;99047.47;;;-9.03;47.90
49825;BME280;35714;55.708;37.478;2024-01-06T16:47:56;99045.44;;;-9.11;47.91
49825;BME280;35714;55.708;37.478;2024-01-06T16:50:22;99061.31;;;-9.13;47.94
49825;BME280;35714;55.708;37.478;2024-01-06T16:52:47;99056.53;;;-9.19;47.77
49825;BME280;35714;55.708;37.478;2024-01-06T16:55:13;99052.00;;;-9.28;47.86
49825;BME280;35714;55.708;37.478;2024-01-06T16:57:39;99052.94;;;-9.29;47.73
49825;BME280;35714;55.708;37.478;2024-01-06T17:00:05;99059.63;;;-9.36;47.71
49825;BME280;35714;55.708;37.478;2024-01-06T17:02:31;99060.31;;;-9.46;47.88
49825;BME280;35714;55.708;37.478;2024-01-06T17:04:57;99062.94;;;-9.57;48.05
49825;BME280;35714;55.708;37.478;2024-01-06T17:07:23;99060.88;;;-9.65;48.13
49825;BME280;35714;55.708;37.478;2024-01-06T17:09:48;99062.41;;;-9.73;48.04
49825;BME280;35714;55.708;37.478;2024-01-06T17:12:16;99064.06;;;-9.84;48.31
49825;BME280;35714;55.708;37.478;2024-01-06T17:14:42;99063.38;;;-9.99;48.33
49825;BME280;35714;55.708;37.478;2024-01-06T17:17:07;99073.34;;;-10.15;48.16
49825;BME280;35714;55.708;37.478;2024-01-06T17:19:33;99071.13;;;-10.32;48.61
49825;BME280;35714;55.708;37.478;2024-01-06T17:21:58;99073.78;;;-10.45;49.25
49825;BME280;35714;55.708;37.478;2024-01-06T17:24:24;99079.59;;;-10.53;49.21
49825;BME280;35714;55.708;37.478;2024-01-06T17:26:50;99079.41;;;-10.63;49.00
49825;BME280;35714;55.708;37.478;2024-01-06T17:29:16;99089.69;;;-10.73;49.58
49825;BME280;35714;55.708;37.478;2024-01-06T17:31:43;99085.94;;;-10.81;49.77
49825;BME280;35714;55.708;37.478;2024-01-06T17:34:09;99084.47;;;-10.85;50.11
49825;BME280;35714;55.708;37.478;2024-01-06T17:36:36;99089.09;;;-10.89;49.87
49825;BME280;35714;55.708;37.478;2024-01-06T17:39:02;99092.25;;;-10.97;49.95
49825;BME280;35714;55.708;37.478;2024-01-06T17:41:28;99084.06;;;-11.05;50.31
49825;BME280;35714;55.708;37.478;2024-01-06T17:43:54;99087.16;;;-11.11;50.07
49825;BME280;35714;55.708;37.478;2024-01-06T17:46:23;99093.53;;;-11.15;50.48
49825;BME280;35714;55.708;37.478;2024-01-06T17:48:52;99098.34;;;-11.22;50.20
49825;BME280;35714;55.708;37.478;2024-01-06T17:51:17;99099.78;;;-11.31;50.44
49825;BME280;35714;55.708;37.478;2024-01-06T17:53:45;99102.63;;;-11.34;50.28
49825;BME280;35714;55.708;37.478;2024-01-06T17:56:11;99110.88;;;-11.40;50.40
49825;BME280;35714;55.708;37.478;2024-01-06T17:58:36;99090.78;;;-11.52;50.42
49825;BME280;35714;55.708;37.478;2024-01-06T18:01:02;99108.97;;;-11.51;50.63
49825;BME280;35714;55.708;37.478;2024-01-06T18:03:28;99105.00;;;-11.56;50.59
49825;BME280;35714;55.708;37.478;2024-01-06T18:05:54;99110.34;;;-11.58;50.61
49825;BME280;35714;55.708;37.478;2024-01-06T18:08:19;99114.41;;;-11.67;50.53
49825;BME280;35714;55.708;37.478;2024-01-06T18:10:45;99106.44;;;-11.65;50.76
49825;BME280;35714;55.708;37.478;2024-01-06T18:13:11;99110.66;;;-11.63;50.86
49825;BME280;35714;55.708;37.478;2024-01-06T18:15:36;99112.75;;;-11.68;50.46
49825;BME280;35714;55.708;37.478;2024-01-06T18:18:02;99112.84;;;-11.69;50.64
49825;BME280;35714;55.708;37.478;2024-01-06T18:20:28;99125.06;;;-11.70;50.44
49825;BME280;35714;55.708;37.478;2024-01-06T18:22:54;99124.63;;;-11.76;50.46
49825;BME280;35714;55.708;37.478;2024-01-06T18:25:19;99128.38;;;-11.81;50.71
49825;BME280;35714;55.708;37.478;2024-01-06T18:27:45;99117.69;;;-11.90;50.54
49825;BME280;35714;55.708;37.478;2024-01-06T18:30:11;99131.69;;;-11.91;50.36
49825;BME280;35714;55.708;37.478;2024-01-06T18:32:37;99136.50;;;-11.98;50.21
49825;BME280;35714;55.708;37.478;2024-01-06T18:35:03;99124.91;;;-12.07;50.71
49825;BME280;35714;55.708;37.478;2024-01-06T18:37:30;99137.97;;;-12.07;50.39
49825;BME280;35714;55.708;37.478;2024-01-06T18:39:56;99135.75;;;-12.13;50.49
49825;BME280;35714;55.708;37.478;2024-01-06T18:42:21;99138.16;;;-12.10;50.34
49825;BME280;35714;55.708;37.478;2024-01-06T18:44:50;99138.34;;;-12.13;50.12
49825;BME280;35714;55.708;37.478;2024-01-06T18:47:16;99145.03;;;-12.09;50.33
49825;BME280;35714;55.708;37.478;2024-01-06T18:49:41;99134.97;;;-12.15;50.34
49825;BME280;35714;55.708;37.478;2024-01-06T18:52:07;99147.13;;;-12.14;50.16
49825;BME280;35714;55.708;37.478;2024-01-06T18:54:34;99149.09;;;-12.18;49.63
49825;BME280;35714;55.708;37.478;2024-01-06T18:57:00;99131.13;;;-12.37;49.75
49825;BME280;35714;55.708;37.478;2024-01-06T18:59:26;99146.44;;;-12.30;49.62
49825;BME280;35714;55.708;37.478;2024-01-06T19:01:52;99160.59;;;-12.35;50.06
49825;BME280;35714;55.708;37.478;2024-01-06T19:04:18;99154.06;;;-12.42;49.34
49825;BME280;35714;55.708;37.478;2024-01-06T19:06:46;99155.31;;;-12.47;49.62
49825;BME280;35714;55.708;37.478;2024-01-06T19:09:11;99160.00;;;-12.53;49.84
49825;BME280;35714;55.708;37.478;2024-01-06T19:11:40;99153.00;;;-12.52;49.54
49825;BME280;35714;55.708;37.478;2024-01-06T19:14:06;99160.09;;;-12.54;49.22
49825;BME280;35714;55.708;37.478;2024-01-06T19:16:31;99173.53;;;-12.60;49.07
49825;BME280;35714;55.708;37.478;2024-01-06T19:18:57;99171.28;;;-12.66;49.34
49825;BME280;35714;55.708;37.478;2024-01-06T19:21:23;99176.78;;;-12.71;48.99
49825;BME280;35714;55.708;37.478;2024-01-06T19:23:48;99183.94;;;-12.75;48.98
49825;BME280;35714;55.708;37.478;2024-01-06T19:26:14;99187.88;;;-12.82;48.96
49825;BME280;35714;55.708;37.478;2024-01-06T19:28:39;99186.75;;;-12.92;49.05
49825;BME280;35714;55.708;37.478;2024-01-06T19:31:05;99191.78;;;-13.03;49.09
49825;BME280;35714;55.708;37.478;2024-01-06T19:33:31;99197.94;;;-13.04;49.16
49825;BME280;35714;55.708;37.478;2024-01-06T19:35:57;99191.03;;;-13.05;49.14
49825;BME280;35714;55.708;37.478;2024-01-06T19:38:23;99187.69;;;-13.08;49.26
49825;BME280;35714;55.708;37.478;2024-01-06T19:40:49;99189.69;;;-13.13;48.65
49825;BME280;35714;55.708;37.478;2024-01-06T19:43:15;99191.38;;;-13.12;49.25
49825;BME280;35714;55.708;37.478;2024-01-06T19:45:42;99189.88;;;-13.16;49.11
49825;BME280;35714;55.708;37.478;2024-01-06T19:48:08;99178.16;;;-13.23;49.16
49825;BME280;35714;55.708;37.478;2024-01-06T19:50:35;99184.19;;;-13.22;49.12
49825;BME280;35714;55.708;37.478;2024-01-06T19:53:02;99201.53;;;-13.21;48.86
49825;BME280;35714;55.708;37.478;2024-01-06T19:55:28;99194.72;;;-13.24;48.84
49825;BME280;35714;55.708;37.478;2024-01-06T19:57:54;99187.47;;;-13.33;48.71
49825;BME280;35714;55.708;37.478;2024-01-06T20:00:23;99198.06;;;-13.36;48.93
49825;BME280;35714;55.708;37.478;2024-01-06T20:02:49;99200.84;;;-13.39;49.03
49825;BME280;35714;55.708;37.478;2024-01-06T20:05:15;99202.91;;;-13.30;49.26
49825;BME280;35714;55.708;37.478;2024-01-06T20:07:41;99190.81;;;-13.31;48.59
49825;BME280;35714;55.708;37.478;2024-01-06T20:10:07;99207.03;;;-13.26;48.53
49825;BME280;35714;55.708;37.478;2024-01-06T20:12:32;99205.16;;;-13.24;48.79
49825;BME280;35714;55.708;37.478;2024-01-06T20:14:58;99209.63;;;-13.26;48.25
49825;BME280;35714;55.708;37.478;2024-01-06T20:17:24;99214.06;;;-13.28;48.84
49825;BME280;35714;55.708;37.478;2024-01-06T20:19:50;99215.59;;;-13.24;48.61
49825;BME280;35714;55.708;37.478;2024-01-06T20:22:15;99221.72;;;-13.25;48.41
49825;BME280;35714;55.708;37.478;2024-01-06T20:24:41;99228.97;;;-13.30;48.62
49825;BME280;35714;55.708;37.478;2024-01-06T20:27:08;99230.84;;;-13.32;48.36
49825;BME280;35714;55.708;37.478;2024-01-06T20:29:33;99232.75;;;-13.34;48.49
49825;BME280;35714;55.708;37.478;2024-01-06T20:31:59;99232.84;;;-13.36;48.50
49825;BME280;35714;55.708;37.478;2024-01-06T20:34:25;99226.19;;;-13.41;48.34
49825;BME280;35714;55.708;37.478;2024-01-06T20:36:50;99236.78;;;-13.45;48.56
49825;BME280;35714;55.708;37.478;2024-01-06T20:39:16;99243.72;;;-13.44;48.58
49825;BME280;35714;55.708;37.478;2024-01-06T20:41:45;99248.91;;;-13.44;48.92
49825;BME280;35714;55.708;37.478;2024-01-06T20:44:11;99254.31;;;-13.47;48.82
49825;BME280;35714;55.708;37.478;2024-01-06T20:46:37;99253.53;;;-13.49;48.88
49825;BME280;35714;55.708;37.478;2024-01-06T20:49:04;99252.22;;;-13.56;48.56
49825;BME280;35714;55.708;37.478;2024-01-06T20:51:31;99253.31;;;-13.60;48.55
49825;BME280;35714;55.708;37.478;2024-01-06T20:53:58;99262.81;;;-13.59;48.79
49825;BME280;35714;55.708;37.478;2024-01-06T20:56:24;99263.72;;;-13.60;49.15
49825;BME280;35714;55.708;37.478;2024-01-06T20:58:49;99276.78;;;-13.60;48.60
49825;BME280;35714;55.708;37.478;2024-01-06T21:01:15;99276.03;;;-13.62;48.88
49825;BME280;35714;55.708;37.478;2024-01-06T21:03:41;99277.03;;;-13.65;49.35
49825;BME280;35714;55.708;37.478;2024-01-06T21:06:09;99286.13;;;-13.56;49.28
49825;BME280;35714;55.708;37.478;2024-01-06T21:08:34;99277.94;;;-13.50;49.42
49825;BME280;35714;55.708;37.478;2024-01-06T21:11:00;99280.13;;;-13.42;48.89
49825;BME280;35714;55.708;37.478;2024-01-06T21:13:26;99279.50;;;-13.31;49.06
49825;BME280;35714;55.708;37.478;2024-01-06T21:15:52;99269.88;;;-13.31;48.79
49825;BME280;35714;55.708;37.478;2024-01-06T21:18:17;99284.75;;;-13.17;48.96
49825;BME280;35714;55.708;37.478;2024-01-06T21:20:43;99284.50;;;-13.12;48.99
49825;BME280;35714;55.708;37.478;2024-01-06T21:23:08;99285.16;;;-13.09;48.79
49825;BME280;35714;55.708;37.478;2024-01-06T21:25:35;99292.13;;;-13.09;48.57
49825;BME280;35714;55.708;37.478;2024-01-06T21:28:00;99267.16;;;-13.13;48.22
49825;BME280;35714;55.708;37.478;2024-01-06T21:30:26;99276.41;;;-13.08;48.09
49825;BME280;35714;55.708;37.478;2024-01-06T21:32:52;99288.31;;;-13.03;47.97
49825;BME280;35714;55.708;37.478;2024-01-06T21:35:27;99288.31;;;-13.03;48.41
49825;BME280;35714;55.708;37.478;2024-01-06T21:37:58;99290.84;;;-13.02;48.36
49825;BME280;35714;55.708;37.478;2024-01-06T21:40:24;99279.56;;;-13.02;48.31
49825;BME280;35714;55.708;37.478;2024-01-06T21:42:51;99273.69;;;-13.06;48.05
49825;BME280;35714;55.708;37.478;2024-01-06T21:45:18;99296.34;;;-12.92;48.54
49825;BME280;35714;55.708;37.478;2024-01-06T21:47:44;99304.59;;;-12.84;48.44
49825;BME280;35714;55.708;37.478;2024-01-06T21:50:11;99300.88;;;-12.80;48.31
49825;BME280;35714;55.708;37.478;2024-01-06T21:52:39;99313.19;;;-12.67;48.49
49825;BME280;35714;55.708;37.478;2024-01-06T21:55:04;99324.81;;;-12.57;48.23
49825;BME280;35714;55.708;37.478;2024-01-06T21:57:31;99322.00;;;-12.54;47.43
49825;BME280;35714;55.708;37.478;2024-01-06T21:59:57;99334.28;;;-12.56;47.79
49825;BME280;35714;55.708;37.478;2024-01-06T22:02:23;99339.25;;;-12.52;47.42
49825;BME280;35714;55.708;37.478;2024-01-06T22:04:48;99334.13;;;-12.53;47.51
49825;BME280;35714;55.708;37.478;2024-01-06T22:07:15;99338.13;;;-12.62;46.79
49825;BME280;35714;55.708;37.478;2024-01-06T22:09:40;99340.97;;;-12.81;47.07
49825;BME280;35714;55.708;37.478;2024-01-06T22:12:07;99340.72;;;-12.92;47.68
49825;BME280;35714;55.708;37.478;2024-01-06T22:14:35;99347.81;;;-12.94;47.49
49825;BME280;35714;55.708;37.478;2024-01-06T22:17:01;99354.03;;;-12.97;47.72
49825;BME280;35714;55.708;37.478;2024-01-06T22:19:26;99340.34;;;-13.00;47.68
49825;BME280;35714;55.708;37.478;2024-01-06T22:21:53;99343.88;;;-13.01;47.90
49825;BME280;35714;55.708;37.478;2024-01-06T22:24:19;99348.00;;;-12.97;48.14
49825;BME280;35714;55.708;37.478;2024-01-06T22:26:45;99343.34;;;-12.92;47.68
49825;BME280;35714;55.708;37.478;2024-01-06T22:29:11;99331.75;;;-13.02;47.93
49825;BME280;35714;55.708;37.478;2024-01-06T22:31:43;99354.13;;;-12.98;47.95
49825;BME280;35714;55.708;37.478;2024-01-06T22:34:10;99351.47;;;-13.13;47.41
49825;BME280;35714;55.708;37.478;2024-01-06T22:36:38;99354.69;;;-13.23;47.76
49825;BME280;35714;55.708;37.478;2024-01-06T22:39:03;99374.75;;;-13.40;47.59
49825;BME280;35714;55.708;37.478;2024-01-06T22:41:29;99372.16;;;-13.56;48.04
49825;BME280;35714;55.708;37.478;2024-01-06T22:43:55;99377.69;;;-13.62;48.35
49825;BME280;35714;55.708;37.478;2024-01-06T22:46:21;99375.09;;;-13.62;48.11
49825;BME280;35714;55.708;37.478;2024-01-06T22:48:46;99387.28;;;-13.63;48.11
49825;BME280;35714;55.708;37.478;2024-01-06T22:51:12;99387.22;;;-13.61;48.17
49825;BME280;35714;55.708;37.478;2024-01-06T22:53:37;99387.13;;;-13.59;47.91
49825;BME280;35714;55.708;37.478;2024-01-06T22:56:03;99392.44;;;-13.61;48.21
49825;BME280;35714;55.708;37.478;2024-01-06T22:58:29;99403.78;;;-13.62;47.90
49825;BME280;35714;55.708;37.478;2024-01-06T23:00:55;99406.53;;;-13.65;48.01
49825;BME280;35714;55.708;37.478;2024-01-06T23:03:20;99407.44;;;-13.66;48.17
49825;BME280;35714;55.708;37.478;2024-01-06T23:05:46;99417.72;;;-13.63;47.69
49825;BME280;35714;55.708;37.478;2024-01-06T23:08:17;99415.09;;;-13.63;48.11
49825;BME280;35714;55.708;37.478;2024-01-06T23:10:42;99416.97;;;-13.65;48.23
49825;BME280;35714;55.708;37.478;2024-01-06T23:13:08;99430.31;;;-13.71;48.11
49825;BME280;35714;55.708;37.478;2024-01-06T23:15:35;99428.03;;;-13.77;48.00
49825;BME280;35714;55.708;37.478;2024-01-06T23:18:00;99441.81;;;-13.75;48.35
49825;BME280;35714;55.708;37.478;2024-01-06T23:20:26;99444.59;;;-13.78;47.84
49825;BME280;35714;55.708;37.478;2024-01-06T23:22:52;99455.25;;;-13.83;48.13
49825;BME280;35714;55.708;37.478;2024-01-06T23:25:17;99452.59;;;-13.99;48.27
49825;BME280;35714;55.708;37.478;2024-01-06T23:27:44;99470.09;;;-14.01;48.02
49825;BME280;35714;55.708;37.478;2024-01-06T23:30:10;99467.13;;;-14.11;48.34
49825;BME280;35714;55.708;37.478;2024-01-06T23:32:36;99471.94;;;-14.21;48.13
49825;BME280;35714;55.708;37.478;2024-01-06T23:35:01;99476.59;;;-14.27;48.57
49825;BME280;35714;55.708;37.478;2024-01-06T23:37:28;99479.59;;;-14.35;48.44
49825;BME280;35714;55.708;37.478;2024-01-06T23:39:54;99469.81;;;-14.47;48.31
49825;BME280;35714;55.708;37.478;2024-01-06T23:42:20;99490.94;;;-14.54;48.71
49825;BME280;35714;55.708;37.478;2024-01-06T23:44:50;99494.91;;;-14.64;48.80
49825;BME280;35714;55.708;37.478;2024-01-06T23:47:16;99490.53;;;-14.63;48.83
49825;BME280;35714;55.708;37.478;2024-01-06T23:49:42;99489.91;;;-14.68;48.91
49825;BME280;35714;55.708;37.478;2024-01-06T23:52:07;99488.47;;;-14.74;48.56
49825;BME280;35714;55.708;37.478;2024-01-06T23:54:37;99490.44;;;-14.79;48.74
49825;BME280;35714;55.708;37.478;2024-01-06T23:57:03;99491.38;;;-14.80;48.82
49825;BME280;35714;55.708;37.478;2024-01-06T23:59:29;99488.13;;;-14.85;49.00
